Time;durP1;ratioP1;P1;durP2;ratioP2;P2;SDS_P1;SDS_P2;PMS_P1;PMS_P2;Temp;Humidity;BMP_temperature;BMP_pressure;BME280_temperature;BME280_humidity;BME280_pressure;Samples;Min_cycle;Max_cycle;Signal;HPM_P1;HPM_P2
2022/03/03 00:01:38;;;;;;;118.93;53.88;;;1.10;99.90;;;;;;5076669;28;20056;-70
2022/03/03 00:04:04;;;;;;;116.13;53.10;;;1.20;99.90;;;;;;5057823;28;20456;-71
2022/03/03 00:06:29;;;;;;;109.10;49.80;;;1.10;99.90;;;;;;5058529;28;20098;-71
2022/03/03 00:08:55;;;;;;;104.28;51.03;;;1.10;99.90;;;;;;5076504;28;20051;-70
2022/03/03 00:11:21;;;;;;;113.55;51.75;;;1.10;99.90;;;;;;5058868;28;20059;-71
2022/03/03 00:13:46;;;;;;;109.38;51.17;;;1.00;99.90;;;;;;5058976;28;20044;-71
2022/03/03 00:16:12;;;;;;;104.90;50.65;;;1.00;99.90;;;;;;5058719;28;20124;-69
2022/03/03 00:18:37;;;;;;;108.78;48.85;;;1.60;99.90;;;;;;5076271;28;20052;-70
2022/03/03 00:21:03;;;;;;;113.03;49.65;;;0.90;99.90;;;;;;5058419;28;20097;-71
2022/03/03 00:23:30;;;;;;;107.72;49.13;;;0.90;99.90;;;;;;5057932;28;20119;-71
2022/03/03 00:25:55;;;;;;;113.35;50.08;;;0.80;99.90;;;;;;5075978;28;20530;-70
2022/03/03 00:28:21;;;;;;;107.22;48.75;;;0.70;99.90;;;;;;5076258;28;20052;-70
2022/03/03 00:30:47;;;;;;;109.15;50.72;;;0.70;99.90;;;;;;5042038;28;20103;-70
2022/03/03 00:33:12;;;;;;;115.38;51.33;;;0.70;99.90;;;;;;5075902;28;20093;-72
2022/03/03 00:35:38;;;;;;;111.32;52.05;;;0.70;99.90;;;;;;5057140;28;20063;-70
2022/03/03 00:38:04;;;;;;;101.85;49.10;;;0.70;99.90;;;;;;5058818;28;20127;-71
2022/03/03 00:40:30;;;;;;;108.13;49.65;;;0.70;99.90;;;;;;5058422;28;20059;-71
2022/03/03 00:42:55;;;;;;;112.40;49.92;;;0.70;99.90;;;;;;5058224;28;20445;-71
2022/03/03 00:45:22;;;;;;;115.32;51.67;;;0.70;99.90;;;;;;5076026;28;20353;-69
2022/03/03 00:47:48;;;;;;;112.43;51.85;;;0.70;99.90;;;;;;5058004;28;20049;-70
2022/03/03 00:50:14;;;;;;;113.47;51.03;;;0.70;99.90;;;;;;5075465;28;20365;-70
2022/03/03 00:52:39;;;;;;;112.72;51.97;;;0.70;99.90;;;;;;5057931;28;20048;-70
2022/03/03 00:55:06;;;;;;;106.63;48.45;;;0.60;99.90;;;;;;5057822;28;20054;-70
2022/03/03 00:57:31;;;;;;;107.93;48.25;;;0.60;99.90;;;;;;5058123;28;20119;-71
2022/03/03 00:59:57;;;;;;;103.95;49.25;;;1.10;99.90;;;;;;5075642;28;20430;-72
2022/03/03 01:02:22;;;;;;;101.50;48.70;;;0.50;99.90;;;;;;5057392;28;20051;-70
2022/03/03 01:04:48;;;;;;;105.43;47.95;;;0.50;99.90;;;;;;5057465;28;20115;-71
2022/03/03 01:07:13;;;;;;;104.35;50.60;;;0.50;99.90;;;;;;5057583;28;20040;-72
2022/03/03 01:09:39;;;;;;;94.20;47.95;;;0.90;99.90;;;;;;5075313;28;20066;-71
2022/03/03 01:12:05;;;;;;;115.38;49.83;;;0.30;99.90;;;;;;5057324;28;20113;-72
2022/03/03 01:14:30;;;;;;;106.05;48.83;;;0.30;99.90;;;;;;5057532;28;20044;-71
2022/03/03 01:16:56;;;;;;;101.82;48.75;;;0.20;99.90;;;;;;5057706;28;20372;-70
2022/03/03 01:19:22;;;;;;;101.70;49.58;;;0.20;99.90;;;;;;5057528;28;20426;-70
2022/03/03 01:21:47;;;;;;;113.65;51.28;;;0.20;99.90;;;;;;5057400;28;20048;-71
2022/03/03 01:24:13;;;;;;;108.50;52.00;;;0.10;99.90;;;;;;5057060;28;20059;-71
2022/03/03 01:26:39;;;;;;;108.57;50.15;;;0.10;99.90;;;;;;5058021;28;20365;-70
2022/03/03 01:29:04;;;;;;;108.10;47.70;;;0.00;99.90;;;;;;5075121;28;20448;-71
2022/03/03 01:31:30;;;;;;;102.45;47.08;;;0.00;99.90;;;;;;5075231;28;20067;-70
2022/03/03 01:33:55;;;;;;;100.10;46.50;;;-0.10;99.90;;;;;;5056732;28;20101;-70
2022/03/03 01:36:21;;;;;;;106.03;49.92;;;-0.10;99.90;;;;;;5075197;28;20170;-72
2022/03/03 01:38:46;;;;;;;101.38;48.03;;;-0.20;99.90;;;;;;5057413;28;20056;-69
2022/03/03 01:41:12;;;;;;;110.63;47.78;;;-0.20;99.90;;;;;;5057403;28;20110;-70
2022/03/03 01:43:38;;;;;;;104.53;47.25;;;-0.30;99.90;;;;;;5074376;28;20056;-70
2022/03/03 01:46:04;;;;;;;102.05;47.47;;;-0.30;99.90;;;;;;5057042;28;20044;-69
2022/03/03 01:48:30;;;;;;;108.80;47.45;;;-0.40;99.90;;;;;;5040290;28;20079;-71
2022/03/03 01:50:55;;;;;;;103.50;47.25;;;-0.40;99.90;;;;;;5075235;28;20097;-71
2022/03/03 01:53:21;;;;;;;118.50;50.58;;;-0.40;99.90;;;;;;5056751;28;20048;-69
2022/03/03 01:55:49;;;;;;;107.78;48.03;;;-0.40;99.90;;;;;;5057318;28;20076;-71
2022/03/03 01:58:15;;;;;;;113.30;50.08;;;-0.40;99.90;;;;;;5057537;28;20373;-70
2022/03/03 02:00:42;;;;;;;104.45;48.47;;;-0.50;99.90;;;;;;5074901;28;20060;-70
2022/03/03 02:03:09;;;;;;;114.07;49.22;;;-0.50;99.90;;;;;;5074362;28;20045;-70
2022/03/03 02:05:35;;;;;;;111.85;48.97;;;-0.50;99.90;;;;;;5075053;28;20353;-71
2022/03/03 02:08:01;;;;;;;111.93;46.97;;;-0.60;99.90;;;;;;5074354;28;20078;-70
2022/03/03 02:10:26;;;;;;;101.82;49.00;;;-0.60;99.90;;;;;;5075172;28;20040;-70
2022/03/03 02:12:52;;;;;;;112.45;50.42;;;-0.60;99.90;;;;;;5075252;28;20045;-71
2022/03/03 02:15:19;;;;;;;104.53;47.35;;;-0.60;99.90;;;;;;5060669;28;20128;-70
2022/03/03 02:17:45;;;;;;;100.70;48.58;;;-0.60;99.90;;;;;;5077971;28;20040;-71
2022/03/03 02:20:31;;;;;;;114.30;48.40;;;-0.60;99.90;;;;;;5061210;28;20433;-70
2022/03/03 02:22:58;;;;;;;114.38;48.25;;;-0.60;99.90;;;;;;5060359;28;20064;-70
2022/03/03 02:25:25;;;;;;;106.95;47.85;;;-0.60;99.90;;;;;;5060987;28;20403;-71
2022/03/03 02:27:51;;;;;;;101.68;46.28;;;-0.60;99.90;;;;;;5078190;28;20107;-70
2022/03/03 02:30:18;;;;;;;108.93;48.63;;;-0.60;99.90;;;;;;5060324;28;20119;-71
2022/03/03 02:32:44;;;;;;;99.45;45.72;;;-0.70;99.90;;;;;;5061061;28;20139;-70
2022/03/03 02:35:10;;;;;;;99.90;46.47;;;-0.10;99.90;;;;;;5060297;28;20048;-71
2022/03/03 02:37:38;;;;;;;108.80;47.97;;;-0.70;99.90;;;;;;5078120;28;20437;-71
2022/03/03 02:40:09;;;;;;;102.20;45.95;;;-0.80;99.90;;;;;;5078288;28;20444;-69
2022/03/03 02:42:35;;;;;;;90.80;44.88;;;-0.80;99.90;;;;;;5060595;28;20092;-69
2022/03/03 02:45:04;;;;;;;102.57;46.88;;;-0.90;99.90;;;;;;5060115;28;20099;-70
2022/03/03 02:47:30;;;;;;;101.82;45.47;;;-0.90;99.90;;;;;;5078071;28;20522;-70
2022/03/03 02:49:56;;;;;;;101.50;46.17;;;-0.20;99.90;;;;;;5078129;28;20348;-70
2022/03/03 02:52:21;;;;;;;104.22;47.75;;;-1.00;99.90;;;;;;5075105;28;20119;-70
2022/03/03 02:54:47;;;;;;;98.35;44.50;;;-0.90;99.90;;;;;;5060108;28;20047;-70
2022/03/03 02:59:57;;;;;;;92.82;45.33;;;-1.00;99.90;;;;;;5077849;28;20106;-70
2022/03/03 03:02:22;;;;;;;107.45;47.33;;;-1.00;99.90;;;;;;5060119;28;20389;-70
2022/03/03 03:04:48;;;;;;;106.03;47.78;;;-0.80;99.90;;;;;;5059913;28;20335;-70
2022/03/03 03:07:13;;;;;;;115.57;48.90;;;-1.00;99.90;;;;;;5078048;28;20045;-70
2022/03/03 03:09:39;;;;;;;89.78;44.88;;;-1.10;99.90;;;;;;5059907;28;20045;-70
2022/03/03 03:12:05;;;;;;;90.28;45.08;;;-1.10;99.90;;;;;;5077534;28;20049;-70
2022/03/03 03:14:30;;;;;;;105.18;47.13;;;-1.10;99.90;;;;;;5076868;28;20400;-71
2022/03/03 03:16:56;;;;;;;110.22;48.92;;;-1.10;99.90;;;;;;5077739;28;20040;-70
2022/03/03 03:19:21;;;;;;;102.60;46.20;;;-1.10;99.90;;;;;;5077860;28;20049;-71
2022/03/03 03:21:47;;;;;;;104.82;49.45;;;-1.10;99.90;;;;;;5059244;28;20063;-71
2022/03/03 03:24:13;;;;;;;122.65;52.20;;;-1.10;99.90;;;;;;5076883;28;20052;-71
2022/03/03 03:26:39;;;;;;;110.28;49.42;;;-0.80;99.90;;;;;;5059691;28;20052;-71
2022/03/03 03:29:05;;;;;;;108.35;50.13;;;-1.00;99.90;;;;;;5060217;28;20079;-70
2022/03/03 03:31:30;;;;;;;119.82;53.83;;;-0.90;99.90;;;;;;5059131;28;20421;-70
2022/03/03 03:33:56;;;;;;;117.20;52.15;;;-0.80;99.90;;;;;;5077416;28;20048;-70
2022/03/03 03:36:22;;;;;;;110.68;51.03;;;-0.70;99.90;;;;;;5077228;28;20365;-70
2022/03/03 03:38:47;;;;;;;117.70;51.95;;;-0.60;99.90;;;;;;5059934;28;20045;-70
2022/03/03 03:41:13;;;;;;;114.63;51.92;;;-0.60;99.90;;;;;;5058421;28;20076;-69
2022/03/03 03:43:39;;;;;;;119.63;51.92;;;-0.50;99.90;;;;;;5060188;28;20117;-71
2022/03/03 03:46:05;;;;;;;125.45;52.38;;;-0.40;99.90;;;;;;5077043;28;20053;-71
2022/03/03 03:48:30;;;;;;;110.53;49.30;;;-0.40;99.90;;;;;;5059361;28;20129;-69
2022/03/03 03:50:56;;;;;;;107.50;49.60;;;-0.40;99.90;;;;;;5076215;28;20119;-72
2022/03/03 03:53:23;;;;;;;119.25;51.67;;;-0.40;99.90;;;;;;5059359;28;20049;-71
2022/03/03 03:55:49;;;;;;;104.55;48.50;;;-0.40;99.90;;;;;;5076747;28;20074;-69
2022/03/03 03:58:15;;;;;;;112.65;49.83;;;-0.40;99.90;;;;;;5076707;28;20109;-71
2022/03/03 04:00:41;;;;;;;107.60;49.30;;;-0.50;99.90;;;;;;5058505;28;20376;-70
2022/03/03 04:03:06;;;;;;;107.45;50.10;;;-0.50;99.90;;;;;;5075669;28;20361;-70
2022/03/03 04:05:32;;;;;;;108.88;50.22;;;-0.50;99.90;;;;;;5076729;28;20056;-71
2022/03/03 04:07:57;;;;;;;108.50;50.78;;;-0.50;99.90;;;;;;5076733;28;20040;-70
2022/03/03 04:10:23;;;;;;;109.85;49.83;;;-0.50;99.90;;;;;;5076019;28;20510;-69
2022/03/03 04:12:49;;;;;;;105.32;48.30;;;-0.50;99.90;;;;;;5076739;28;20048;-71
2022/03/03 04:15:14;;;;;;;103.53;48.10;;;-0.50;99.90;;;;;;5076208;28;20047;-71
2022/03/03 04:17:40;;;;;;;103.55;48.60;;;-0.60;99.90;;;;;;5058745;28;20056;-71
2022/03/03 04:20:07;;;;;;;99.03;49.08;;;-0.60;99.90;;;;;;5075688;28;20070;-70
2022/03/03 04:22:34;;;;;;;102.53;47.58;;;-0.60;99.90;;;;;;5076356;28;20084;-70
2022/03/03 04:25:00;;;;;;;107.50;51.00;;;-0.60;99.90;;;;;;5058214;28;20148;-70
2022/03/03 04:27:26;;;;;;;100.82;49.33;;;-0.60;99.90;;;;;;5058624;28;20195;-70
2022/03/03 04:29:51;;;;;;;86.30;43.55;;;-0.60;99.90;;;;;;5075578;28;20568;-70
2022/03/03 04:32:17;;;;;;;101.35;49.17;;;-0.50;99.90;;;;;;5058931;28;20048;-70
2022/03/03 04:34:42;;;;;;;91.70;47.63;;;-0.70;99.90;;;;;;5058285;28;20071;-70
2022/03/03 04:37:08;;;;;;;91.53;47.35;;;-0.60;99.90;;;;;;5057624;28;20056;-70
2022/03/03 04:39:34;;;;;;;91.57;45.47;;;-0.70;99.90;;;;;;5058262;28;20494;-72
2022/03/03 04:41:59;;;;;;;93.68;47.92;;;-0.70;99.90;;;;;;5075049;28;20067;-70
2022/03/03 04:44:25;;;;;;;86.68;45.08;;;-0.80;99.90;;;;;;5070679;28;20078;-70
2022/03/03 04:46:50;;;;;;;88.07;45.70;;;-0.70;99.90;;;;;;5049945;28;20055;-71
2022/03/03 04:49:16;;;;;;;88.40;45.85;;;-0.70;99.90;;;;;;5055619;28;20442;-72
2022/03/03 04:51:41;;;;;;;90.40;46.67;;;-0.70;99.90;;;;;;5069949;28;20048;-71
2022/03/03 04:54:09;;;;;;;85.53;45.53;;;-0.70;99.90;;;;;;5057991;28;20123;-71
2022/03/03 04:56:35;;;;;;;95.18;46.08;;;-0.70;99.90;;;;;;5058185;28;20105;-71
2022/03/03 04:59:01;;;;;;;86.60;43.72;;;-0.70;99.90;;;;;;5077559;28;20041;-70
2022/03/03 05:01:27;;;;;;;88.18;45.13;;;-0.60;99.90;;;;;;5057866;28;20051;-71
2022/03/03 05:03:52;;;;;;;83.50;42.17;;;-0.70;99.90;;;;;;5075620;28;20444;-69
2022/03/03 05:06:18;;;;;;;80.50;42.72;;;-0.70;99.90;;;;;;5058685;28;20070;-70
2022/03/03 05:08:44;;;;;;;80.07;42.25;;;-0.70;99.90;;;;;;5075159;28;20044;-70
2022/03/03 05:11:10;;;;;;;80.68;42.67;;;-0.70;99.90;;;;;;5057221;28;20441;-70
2022/03/03 05:13:36;;;;;;;85.75;44.63;;;-0.10;99.90;;;;;;5074946;28;20040;-70
2022/03/03 05:16:03;;;;;;;77.18;39.78;;;-0.80;99.90;;;;;;5075261;28;20060;-71
2022/03/03 05:18:29;;;;;;;77.30;41.33;;;-0.80;99.90;;;;;;5075214;28;20055;-70
2022/03/03 05:20:55;;;;;;;76.20;43.03;;;-0.80;99.90;;;;;;5057103;28;20037;-70
2022/03/03 05:23:21;;;;;;;71.57;37.50;;;-0.70;99.90;;;;;;5075050;28;20083;-70
2022/03/03 05:25:47;;;;;;;71.57;40.15;;;-0.60;99.90;;;;;;5074932;28;20048;-72
2022/03/03 05:28:12;;;;;;;73.75;40.47;;;-0.70;99.90;;;;;;5057133;28;20059;-70
2022/03/03 05:30:38;;;;;;;73.40;41.17;;;-0.70;99.90;;;;;;5057080;28;20123;-69
2022/03/03 05:33:04;;;;;;;73.53;39.20;;;-0.40;99.90;;;;;;5074980;28;20048;-70
2022/03/03 05:35:30;;;;;;;75.05;40.70;;;-0.80;99.90;;;;;;5075064;28;20045;-69
2022/03/03 05:37:56;;;;;;;77.93;40.00;;;-0.80;99.90;;;;;;5057367;28;20060;-71
2022/03/03 05:40:21;;;;;;;77.03;40.80;;;-0.80;99.90;;;;;;5056551;28;20060;-69
2022/03/03 05:42:47;;;;;;;75.20;40.42;;;-0.80;99.90;;;;;;5075114;28;20463;-69
2022/03/03 05:45:13;;;;;;;69.18;39.80;;;-0.90;99.90;;;;;;5074922;28;20040;-70
2022/03/03 05:47:39;;;;;;;78.18;41.45;;;-0.90;99.90;;;;;;5074932;28;20054;-69
2022/03/03 05:50:05;;;;;;;73.07;40.28;;;-1.00;99.90;;;;;;5071529;28;20472;-70
2022/03/03 05:52:31;;;;;;;74.30;39.53;;;-0.90;99.90;;;;;;5074779;28;20045;-69
2022/03/03 05:54:57;;;;;;;76.07;41.22;;;-1.00;99.90;;;;;;5074846;28;20484;-71
2022/03/03 05:57:32;;;;;;;76.43;42.05;;;-1.00;99.90;;;;;;5057837;28;20057;-68
2022/03/03 06:00:08;;;;;;;73.93;40.20;;;-1.10;99.90;;;;;;5074474;28;20076;-69
2022/03/03 06:02:35;;;;;;;78.18;42.25;;;-1.10;99.90;;;;;;5057421;28;20057;-69
2022/03/03 06:05:03;;;;;;;75.70;42.08;;;-1.10;99.90;;;;;;5056989;28;20102;-71
2022/03/03 06:07:33;;;;;;;77.97;41.40;;;-1.10;99.90;;;;;;5074528;28;20053;-70
2022/03/03 06:10:03;;;;;;;72.28;39.67;;;-1.00;99.90;;;;;;5074078;28;20330;-71
2022/03/03 06:12:47;;;;;;;79.38;42.90;;;-1.00;99.90;;;;;;5056714;28;20457;-71
2022/03/03 06:15:14;;;;;;;78.22;41.13;;;-0.40;99.90;;;;;;5074722;28;20041;-70
2022/03/03 06:17:43;;;;;;;78.07;41.50;;;-1.00;99.90;;;;;;5074609;28;20460;-71
2022/03/03 06:20:10;;;;;;;81.80;43.25;;;-1.00;99.90;;;;;;5051620;28;20133;-69
2022/03/03 06:22:35;;;;;;;78.13;41.85;;;-1.00;99.90;;;;;;5045263;28;20052;-75
2022/03/03 06:25:01;;;;;;;80.63;42.60;;;-1.00;99.90;;;;;;5057958;28;20375;-70
2022/03/03 06:27:29;;;;;;;78.03;42.42;;;-0.90;99.90;;;;;;5020434;28;20053;-71
2022/03/03 06:29:55;;;;;;;78.70;41.63;;;-0.90;99.90;;;;;;5050707;28;20052;-71
2022/03/03 06:32:20;;;;;;;75.70;40.00;;;-0.80;99.90;;;;;;5056541;28;20068;-71
2022/03/03 06:34:46;;;;;;;70.97;40.72;;;-0.80;99.90;;;;;;5068478;28;20080;-71
2022/03/03 06:37:12;;;;;;;82.22;41.85;;;-0.80;99.90;;;;;;5054201;28;20331;-71
2022/03/03 06:39:37;;;;;;;76.15;39.83;;;-0.80;99.90;;;;;;5047934;28;20453;-69
2022/03/03 06:42:03;;;;;;;69.88;40.60;;;-0.80;99.90;;;;;;5056809;28;20052;-69
2022/03/03 06:44:29;;;;;;;73.63;38.92;;;-0.70;99.90;;;;;;5056753;28;20049;-71
2022/03/03 06:46:55;;;;;;;77.68;43.53;;;-0.70;99.90;;;;;;5073990;28;20110;-72
2022/03/03 06:49:21;;;;;;;75.22;41.00;;;-0.70;99.90;;;;;;5073548;28;20135;-70
2022/03/03 06:51:49;;;;;;;74.28;42.47;;;-0.70;99.90;;;;;;5074102;28;20048;-70
2022/03/03 06:54:20;;;;;;;76.03;41.55;;;-0.70;99.90;;;;;;5056468;28;20059;-72
2022/03/03 06:56:54;;;;;;;79.40;41.60;;;-0.70;99.90;;;;;;5074283;28;20095;-71
2022/03/03 06:59:25;;;;;;;73.10;42.58;;;-0.70;99.90;;;;;;5074706;28;20041;-69
2022/03/03 07:01:52;;;;;;;72.10;40.42;;;-0.60;99.90;;;;;;5059878;28;20044;-72
2022/03/03 07:04:19;;;;;;;73.85;41.70;;;-0.60;99.90;;;;;;5077308;28;20040;-71
2022/03/03 07:06:46;;;;;;;75.97;43.15;;;-0.50;99.90;;;;;;5059869;28;20126;-71
2022/03/03 07:09:12;;;;;;;75.63;43.85;;;-0.50;99.90;;;;;;5059302;28;20078;-72
2022/03/03 07:11:39;;;;;;;76.80;41.92;;;-0.50;99.90;;;;;;5077735;28;20042;-71
2022/03/03 07:14:05;;;;;;;70.80;41.03;;;-0.40;99.90;;;;;;5059552;28;20105;-70
2022/03/03 07:16:41;;;;;;;77.32;41.95;;;-0.40;99.90;;;;;;5077296;28;20041;-72
2022/03/03 07:19:19;;;;;;;77.60;42.55;;;-0.30;99.90;;;;;;5059446;28;20119;-71
2022/03/03 07:21:57;;;;;;;78.68;43.75;;;-0.30;99.90;;;;;;5059058;28;20483;-71
2022/03/03 07:24:31;;;;;;;76.38;41.38;;;-0.20;99.90;;;;;;5042647;28;20049;-70
2022/03/03 07:26:59;;;;;;;72.78;40.97;;;-0.10;99.90;;;;;;5039735;28;20083;-68
2022/03/03 07:29:28;;;;;;;79.28;42.38;;;-0.10;99.90;;;;;;5052686;28;20087;-70
2022/03/03 07:31:56;;;;;;;72.03;41.55;;;0.00;99.90;;;;;;5064293;28;20485;-71
2022/03/03 07:34:33;;;;;;;76.90;40.45;;;0.10;99.90;;;;;;5049193;28;20063;-70
2022/03/03 07:37:08;;;;;;;71.32;42.20;;;0.10;99.90;;;;;;5049593;28;20460;-71
2022/03/03 07:39:40;;;;;;;77.47;42.78;;;0.20;99.90;;;;;;5066779;28;20464;-73
2022/03/03 07:42:10;;;;;;;71.47;41.15;;;0.20;99.90;;;;;;5054603;28;20055;-71
2022/03/03 07:44:36;;;;;;;70.88;39.83;;;0.30;99.90;;;;;;5059115;28;20045;-70
2022/03/03 07:47:02;;;;;;;73.85;43.38;;;0.30;99.90;;;;;;5076427;28;20128;-72
2022/03/03 07:49:30;;;;;;;73.90;41.20;;;0.30;99.90;;;;;;5076556;28;20044;-71
2022/03/03 07:51:57;;;;;;;70.97;41.17;;;0.40;99.90;;;;;;5076545;28;20492;-71
2022/03/03 07:54:22;;;;;;;73.10;41.45;;;0.50;99.90;;;;;;5076756;28;20131;-70
2022/03/03 07:56:51;;;;;;;71.63;40.38;;;0.60;99.90;;;;;;5076185;28;20128;-69
2022/03/03 07:59:18;;;;;;;74.22;40.88;;;0.60;99.90;;;;;;5055918;28;20524;-70
2022/03/03 08:01:45;;;;;;;76.75;41.58;;;0.70;99.90;;;;;;5056632;28;20051;-71
2022/03/03 08:04:15;;;;;;;73.55;40.63;;;0.80;99.90;;;;;;5038943;28;20053;-70
2022/03/03 08:06:42;;;;;;;69.63;39.28;;;0.80;99.90;;;;;;5038709;28;20053;-70
2022/03/03 08:09:09;;;;;;;69.35;39.53;;;0.90;99.90;;;;;;5075497;28;20041;-72
2022/03/03 08:11:39;;;;;;;75.25;42.08;;;0.90;99.90;;;;;;5057850;28;20076;-69
2022/03/03 08:14:06;;;;;;;69.40;38.38;;;1.00;99.90;;;;;;5075717;28;20051;-70
2022/03/03 08:16:35;;;;;;;69.88;39.63;;;1.10;99.90;;;;;;5076327;28;20081;-70
2022/03/03 08:19:02;;;;;;;72.57;40.05;;;1.10;99.90;;;;;;5075839;28;20052;-71
2022/03/03 08:21:29;;;;;;;68.63;39.05;;;1.20;99.90;;;;;;5059000;28;20044;-71
2022/03/03 08:23:55;;;;;;;73.18;40.17;;;1.20;99.90;;;;;;5058782;28;20091;-72
2022/03/03 08:26:21;;;;;;;67.00;35.20;;;1.30;99.90;;;;;;5058490;28;20059;-71
2022/03/03 08:28:47;;;;;;;61.40;35.97;;;1.60;99.90;;;;;;5075484;28;20072;-69
2022/03/03 08:31:19;;;;;;;65.28;36.75;;;1.40;99.90;;;;;;5076064;28;20087;-70
2022/03/03 08:34:10;;;;;;;57.27;34.67;;;1.50;99.90;;;;;;5076519;28;20055;-70
2022/03/03 08:36:45;;;;;;;58.85;34.17;;;1.60;99.90;;;;;;5058692;28;20063;-72
2022/03/03 08:39:14;;;;;;;61.83;34.97;;;1.70;99.90;;;;;;5074947;28;20048;-71
2022/03/03 08:41:41;;;;;;;58.47;34.85;;;1.80;99.90;;;;;;5075989;28;20415;-70
2022/03/03 08:44:08;;;;;;;58.35;35.20;;;1.90;99.90;;;;;;5057679;28;20083;-70
2022/03/03 08:46:36;;;;;;;64.50;34.85;;;2.00;99.90;;;;;;5057994;28;20436;-70
2022/03/03 08:49:05;;;;;;;58.35;34.47;;;2.10;99.90;;;;;;5057416;28;20045;-70
2022/03/03 08:51:31;;;;;;;60.22;34.30;;;2.20;99.90;;;;;;5075594;28;20445;-71
2022/03/03 08:53:57;;;;;;;61.75;35.42;;;2.20;99.90;;;;;;5058229;28;20101;-69
2022/03/03 08:56:23;;;;;;;54.22;33.25;;;2.30;99.90;;;;;;5057917;28;20052;-70
2022/03/03 08:58:49;;;;;;;59.67;33.70;;;2.40;99.90;;;;;;5057636;28;20113;-71
2022/03/03 09:01:15;;;;;;;61.47;34.10;;;2.50;99.90;;;;;;5075361;28;20044;-69
2022/03/03 09:03:43;;;;;;;54.80;33.13;;;2.60;99.90;;;;;;5057924;28;20334;-70
2022/03/03 09:06:13;;;;;;;58.75;35.13;;;2.60;99.90;;;;;;5057810;28;20048;-72
2022/03/03 09:08:38;;;;;;;58.47;34.00;;;2.70;99.90;;;;;;5074715;28;20102;-70
2022/03/03 09:11:04;;;;;;;55.38;32.92;;;2.70;99.90;;;;;;5057478;28;20048;-71
2022/03/03 09:13:30;;;;;;;57.63;33.90;;;2.80;99.90;;;;;;5075063;28;20040;-71
2022/03/03 09:15:55;;;;;;;52.22;32.53;;;2.90;99.90;;;;;;5075131;28;20518;-72
2022/03/03 09:18:21;;;;;;;48.63;30.92;;;2.90;99.90;;;;;;5074632;28;20123;-69
2022/03/03 09:20:47;;;;;;;54.67;32.90;;;3.00;99.90;;;;;;5075463;28;20045;-72
2022/03/03 09:23:12;;;;;;;52.00;31.48;;;3.10;99.90;;;;;;5057187;28;20048;-70
2022/03/03 09:25:39;;;;;;;47.17;29.52;;;3.20;99.90;;;;;;5057378;28;20055;-71
2022/03/03 09:28:06;;;;;;;50.85;30.95;;;3.30;99.90;;;;;;5057644;28;20080;-70
2022/03/03 09:30:32;;;;;;;49.70;29.80;;;3.40;99.90;;;;;;5075219;28;20123;-72
2022/03/03 09:32:57;;;;;;;42.22;26.60;;;3.50;99.90;;;;;;5075086;28;20465;-71
2022/03/03 09:35:23;;;;;;;49.15;28.83;;;3.60;99.90;;;;;;5057491;28;20131;-71
2022/03/03 09:37:49;;;;;;;48.92;26.92;;;3.60;99.90;;;;;;5056591;28;20044;-71
2022/03/03 09:40:14;;;;;;;50.40;29.80;;;3.70;99.90;;;;;;5057113;28;20106;-71
2022/03/03 09:42:40;;;;;;;46.63;28.58;;;3.80;99.90;;;;;;5074653;28;20106;-72
2022/03/03 09:45:09;;;;;;;51.13;28.55;;;3.80;99.90;;;;;;5057719;28;20142;-70
2022/03/03 09:47:36;;;;;;;46.00;28.63;;;3.90;99.90;;;;;;5074634;28;20365;-71
2022/03/03 09:50:02;;;;;;;43.42;27.35;;;4.00;99.90;;;;;;5074757;28;20083;-70
2022/03/03 09:52:28;;;;;;;44.95;27.08;;;4.10;99.90;;;;;;5075038;28;20049;-70
2022/03/03 09:54:55;;;;;;;44.70;26.98;;;4.20;99.90;;;;;;5074477;28;20067;-70
2022/03/03 09:57:21;;;;;;;53.10;29.77;;;4.20;99.90;;;;;;5074490;28;20056;-69
2022/03/03 09:59:47;;;;;;;47.60;28.35;;;4.30;99.90;;;;;;5057239;28;20133;-72
2022/03/03 10:02:13;;;;;;;46.90;29.50;;;4.40;99.90;;;;;;5057181;28;20128;-72
2022/03/03 10:04:40;;;;;;;43.10;26.58;;;4.90;99.90;;;;;;5057097;28;20093;-72
2022/03/03 10:07:08;;;;;;;40.10;24.45;;;4.50;99.90;;;;;;5073998;28;20091;-70
2022/03/03 10:12:19;;;;;;;37.22;23.45;;;4.70;99.90;;;;;;5057144;28;20048;-72
2022/03/03 10:14:48;;;;;;;38.05;23.85;;;4.90;99.90;;;;;;5074922;28;20045;-71
2022/03/03 10:17:15;;;;;;;37.90;23.85;;;5.00;99.90;;;;;;5056651;28;20060;-70
2022/03/03 10:19:57;;;;;;;38.75;22.88;;;5.10;99.90;;;;;;5056997;28;20133;-69
2022/03/03 10:22:45;;;;;;;35.20;23.13;;;5.20;99.90;;;;;;5074275;28;20052;-71
2022/03/03 10:25:13;;;;;;;33.92;22.13;;;5.40;99.90;;;;;;5056727;28;20063;-70
2022/03/03 10:27:39;;;;;;;35.25;21.50;;;5.50;99.90;;;;;;5056840;28;20356;-70
2022/03/03 10:30:08;;;;;;;32.42;18.85;;;5.60;99.90;;;;;;5074150;28;20041;-71
2022/03/03 10:32:36;;;;;;;29.95;21.50;;;5.70;99.90;;;;;;5073910;28;20105;-71
2022/03/03 10:35:13;;;;;;;34.10;21.67;;;5.80;99.90;;;;;;5059690;28;20055;-71
2022/03/03 10:37:39;;;;;;;32.95;21.88;;;5.90;99.90;;;;;;5066649;28;20476;-69
2022/03/03 10:40:10;;;;;;;33.47;20.75;;;5.90;99.90;;;;;;5062532;28;20057;-68
2022/03/03 10:42:37;;;;;;;35.40;22.05;;;6.00;99.90;;;;;;5039521;28;20098;-70
2022/03/03 10:45:11;;;;;;;30.85;19.75;;;6.10;99.90;;;;;;5046177;28;20049;-68
2022/03/03 10:47:37;;;;;;;32.15;21.23;;;6.20;99.90;;;;;;5048732;28;20102;-69
2022/03/03 10:50:04;;;;;;;32.45;21.67;;;6.30;99.90;;;;;;5056966;28;20090;-69
2022/03/03 10:52:40;;;;;;;34.53;21.98;;;6.30;99.90;;;;;;5077197;28;20095;-72
2022/03/03 10:55:08;;;;;;;30.40;21.02;;;6.40;99.90;;;;;;5071708;28;20052;-70
2022/03/03 10:57:58;;;;;;;34.13;22.85;;;6.50;99.90;;;;;;5064338;28;20105;-69
2022/03/03 11:00:29;;;;;;;31.10;21.50;;;6.60;99.90;;;;;;5056124;28;20048;-72
2022/03/03 11:02:57;;;;;;;33.65;21.33;;;6.70;99.90;;;;;;5070896;28;20075;-70
2022/03/03 11:05:25;;;;;;;30.02;21.27;;;6.80;99.90;;;;;;5077502;28;20045;-70
2022/03/03 11:07:53;;;;;;;28.33;19.63;;;6.80;99.90;;;;;;5077677;28;20052;-70
2022/03/03 11:10:21;;;;;;;27.20;19.30;;;6.90;99.90;;;;;;5059779;28;20049;-71
2022/03/03 11:12:48;;;;;;;31.23;20.83;;;7.00;99.90;;;;;;5059233;28;20076;-71
2022/03/03 11:15:15;;;;;;;28.98;19.95;;;7.10;99.90;;;;;;5059805;28;20045;-70
2022/03/03 11:17:41;;;;;;;31.58;20.23;;;7.20;99.90;;;;;;5073744;28;20040;-69
2022/03/03 11:20:10;;;;;;;30.60;20.27;;;7.30;99.90;;;;;;5057859;28;20126;-71
2022/03/03 11:22:36;;;;;;;30.65;20.98;;;7.40;99.90;;;;;;5059134;28;20112;-71
2022/03/03 11:25:08;;;;;;;31.75;20.73;;;7.40;99.90;;;;;;5057982;28;20076;-71
2022/03/03 11:27:42;;;;;;;31.70;20.63;;;7.50;99.90;;;;;;5046317;28;20053;-72
2022/03/03 11:30:33;;;;;;;27.75;19.83;;;7.50;99.90;;;;;;5056496;28;20358;-71
2022/03/03 11:33:17;;;;;;;30.30;20.70;;;7.50;99.90;;;;;;5066350;28;20063;-70
2022/03/03 11:35:59;;;;;;;30.52;20.30;;;7.60;99.90;;;;;;5075827;28;20178;-71
2022/03/03 11:38:50;;;;;;;27.73;19.48;;;7.80;99.90;;;;;;5048790;28;20045;-70
2022/03/03 11:41:16;;;;;;;29.42;19.65;;;7.70;99.90;;;;;;5072503;28;20137;-71
2022/03/03 11:43:57;;;;;;;31.02;20.95;;;7.70;99.90;;;;;;5075107;28;20127;-69
2022/03/03 11:46:46;;;;;;;29.77;19.60;;;7.70;99.90;;;;;;5059210;28;20048;-71
2022/03/03 11:49:26;;;;;;;26.85;17.67;;;7.90;99.90;;;;;;5059148;28;20044;-70
2022/03/03 11:51:55;;;;;;;25.27;17.25;;;7.90;99.90;;;;;;5075954;28;20132;-70
2022/03/03 11:54:31;;;;;;;30.33;18.48;;;8.00;99.90;;;;;;5058174;28;20467;-71
2022/03/03 11:57:03;;;;;;;31.73;21.58;;;8.10;99.90;;;;;;5058935;28;20066;-73
2022/03/03 11:59:42;;;;;;;28.92;19.38;;;8.20;99.90;;;;;;5076784;28;20113;-71
2022/03/03 12:02:08;;;;;;;29.60;18.85;;;8.20;99.90;;;;;;5058319;28;20044;-71
2022/03/03 12:04:34;;;;;;;27.58;18.88;;;8.20;99.90;;;;;;5058487;28;20052;-70
2022/03/03 12:07:00;;;;;;;28.27;18.67;;;8.30;99.90;;;;;;5075964;28;20048;-71
2022/03/03 12:09:32;;;;;;;26.52;19.27;;;8.30;99.90;;;;;;5075940;28;20437;-69
2022/03/03 12:12:10;;;;;;;27.77;19.25;;;8.30;99.90;;;;;;5058408;28;20119;-70
2022/03/03 12:14:50;;;;;;;28.17;18.15;;;8.40;99.90;;;;;;5075014;28;20095;-70
2022/03/03 12:17:53;;;;;;;24.67;16.48;;;8.40;99.90;;;;;;5075799;28;20059;-70
2022/03/03 12:20:27;;;;;;;26.83;19.02;;;8.50;99.90;;;;;;5058570;28;20109;-71
2022/03/03 12:23:02;;;;;;;23.67;16.65;;;8.50;99.90;;;;;;5057842;28;20118;-71
2022/03/03 12:25:46;;;;;;;27.50;18.83;;;8.50;99.90;;;;;;5075997;28;20365;-72
2022/03/03 12:28:17;;;;;;;;;;;8.50;99.90;;;;;;5076063;28;20040;-72
2022/03/03 12:30:44;;;;;;;23.92;16.73;;;8.50;99.90;;;;;;5075287;28;20352;-69
2022/03/03 12:33:24;;;;;;;27.90;18.52;;;8.60;99.90;;;;;;5074479;28;20060;-70
2022/03/03 12:35:57;;;;;;;24.67;16.73;;;8.60;99.90;;;;;;5038187;28;20175;-69
2022/03/03 12:38:23;;;;;;;23.15;16.42;;;8.70;99.90;;;;;;5038176;28;20055;-71